Time;durP1;ratioP1;P1;durP2;ratioP2;P2;SDS_P1;SDS_P2;PMS_P1;PMS_P2;Temp;Humidity;BMP_temperature;BMP_pressure;BME280_temperature;BME280_humidity;BME280_pressure;Samples;Min_cycle;Max_cycle;Signal;HPM_P1;HPM_P2
2023/12/22 00:04:16;;;;;;;117.57;108.82;;;5.40;99.90;;;;;;12338091;28;20047;-34
2023/12/22 00:10:18;;;;;;;101.63;93.90;;;5.40;99.90;;;;;;12332956;28;20054;-35
2023/12/22 00:16:20;;;;;;;100.78;93.28;;;5.50;99.90;;;;;;12322598;28;20142;-35
2023/12/22 00:22:22;;;;;;;131.20;121.50;;;5.50;99.90;;;;;;12329046;28;20280;-34
2023/12/22 00:28:24;;;;;;;129.23;119.43;;;5.50;99.90;;;;;;12329079;28;20480;-34
2023/12/22 00:34:27;;;;;;;123.70;114.25;;;5.60;99.90;;;;;;12330671;28;20380;-35
2023/12/22 00:40:28;;;;;;;128.73;119.32;;;5.50;99.90;;;;;;12326762;28;20050;-33
2023/12/22 00:46:30;;;;;;;145.13;134.27;;;5.50;99.90;;;;;;12315289;28;20153;-34
2023/12/22 00:52:32;;;;;;;146.02;134.88;;;5.50;99.90;;;;;;12329789;28;20059;-35
2023/12/22 00:58:34;;;;;;;143.73;132.90;;;5.20;99.90;;;;;;12324517;28;20051;-34
2023/12/22 01:04:36;;;;;;;136.93;126.82;;;5.00;99.90;;;;;;12327273;28;20414;-35
2023/12/22 01:10:38;;;;;;;145.27;133.85;;;5.00;99.90;;;;;;12328910;28;20172;-34
2023/12/22 01:16:40;;;;;;;135.88;125.72;;;5.00;99.90;;;;;;12320888;28;20058;-35
2023/12/22 01:22:42;;;;;;;146.68;135.25;;;4.80;99.90;;;;;;12322465;28;20101;-35
2023/12/22 01:28:44;;;;;;;147.65;136.07;;;4.70;99.90;;;;;;12330916;28;20403;-34
2023/12/22 01:34:46;;;;;;;155.60;143.20;;;4.50;99.90;;;;;;12322802;28;20049;-34
2023/12/22 01:40:48;;;;;;;152.68;141.05;;;4.30;99.90;;;;;;12332736;28;20069;-34
2023/12/22 01:46:51;;;;;;;141.45;131.02;;;4.20;99.90;;;;;;12375435;28;20407;-34
2023/12/22 01:52:53;;;;;;;154.65;143.25;;;4.20;99.90;;;;;;12354698;28;20115;-34
2023/12/22 01:58:59;;;;;;;136.90;127.22;;;4.20;99.90;;;;;;12326956;28;20411;-34
2023/12/22 02:05:01;;;;;;;150.07;139.55;;;4.30;99.90;;;;;;12325891;28;20051;-34
2023/12/22 02:11:04;;;;;;;142.57;132.13;;;4.30;99.90;;;;;;12340087;28;20054;-33
2023/12/22 02:17:21;;;;;;;155.98;144.43;;;4.50;99.90;;;;;;12333952;28;20099;-34
2023/12/22 02:23:23;;;;;;;148.25;137.27;;;4.50;99.90;;;;;;12341937;28;20043;-34
2023/12/22 02:29:26;;;;;;;175.43;162.10;;;4.50;99.90;;;;;;12325080;28;20058;-34
2023/12/22 02:35:30;;;;;;;171.27;158.40;;;4.50;99.90;;;;;;12354508;28;20055;-34
2023/12/22 02:41:32;;;;;;;167.15;154.02;;;4.50;99.90;;;;;;12331285;28;20043;-34
2023/12/22 02:47:34;;;;;;;146.02;135.52;;;4.40;99.90;;;;;;12341059;28;20544;-34
2023/12/22 02:53:37;;;;;;;146.05;135.57;;;4.50;99.90;;;;;;12352812;28;20051;-34
2023/12/22 02:59:39;;;;;;;151.50;140.35;;;4.40;99.90;;;;;;12336008;28;20055;-34
2023/12/22 03:05:40;;;;;;;154.50;142.90;;;4.30;99.90;;;;;;12355625;28;20501;-35
2023/12/22 03:11:42;;;;;;;168.23;155.52;;;4.20;99.90;;;;;;12362497;28;20050;-34
2023/12/22 03:17:44;;;;;;;159.45;147.25;;;4.10;99.90;;;;;;12336862;28;20059;-35
2023/12/22 03:23:46;;;;;;;166.10;153.18;;;4.00;99.90;;;;;;12331383;28;20047;-35
2023/12/22 03:29:48;;;;;;;166.63;154.05;;;3.90;99.90;;;;;;12333142;28;20046;-35
2023/12/22 03:35:50;;;;;;;166.95;153.13;;;4.00;99.90;;;;;;12333293;28;20053;-35
2023/12/22 03:41:52;;;;;;;163.85;151.40;;;4.10;99.90;;;;;;12366483;28;20081;-35
2023/12/22 03:47:54;;;;;;;143.60;132.82;;;4.20;99.90;;;;;;12330870;28;20049;-35
2023/12/22 03:53:55;;;;;;;146.48;135.32;;;4.40;99.90;;;;;;12346449;28;21220;-35
2023/12/22 03:59:57;;;;;;;117.03;108.80;;;4.50;99.90;;;;;;12340077;28;20101;-35
2023/12/22 04:06:02;;;;;;;131.63;121.82;;;4.70;99.90;;;;;;12321893;28;20047;-35
2023/12/22 04:12:05;;;;;;;137.55;127.72;;;4.80;99.90;;;;;;12324021;28;20051;-35
2023/12/22 04:18:07;;;;;;;189.02;173.80;;;4.80;99.90;;;;;;12332124;28;20051;-34
2023/12/22 04:24:09;;;;;;;326.75;301.70;;;4.70;99.90;;;;;;12329768;28;20082;-35
2023/12/22 04:30:11;;;;;;;283.98;262.50;;;4.50;99.90;;;;;;12338418;28;20061;-35
2023/12/22 04:36:13;;;;;;;255.60;236.35;;;4.40;99.90;;;;;;12333040;28;20055;-35
2023/12/22 04:42:15;;;;;;;257.25;238.05;;;4.40;99.90;;;;;;12332410;28;20086;-35
2023/12/22 04:48:17;;;;;;;259.55;240.63;;;4.50;99.90;;;;;;12332867;28;20407;-35
2023/12/22 04:54:19;;;;;;;277.23;256.92;;;4.50;99.90;;;;;;12327280;28;20058;-35
2023/12/22 05:00:20;;;;;;;191.65;176.82;;;4.40;99.90;;;;;;12326789;28;20090;-34
2023/12/22 05:06:22;;;;;;;204.05;188.75;;;4.60;99.90;;;;;;12328261;28;20050;-35
2023/12/22 05:12:24;;;;;;;186.73;172.43;;;4.50;99.90;;;;;;12326479;28;20483;-34
2023/12/22 05:18:27;;;;;;;165.65;152.68;;;4.50;99.90;;;;;;12323304;28;20511;-35
2023/12/22 05:24:29;;;;;;;170.55;157.10;;;4.60;99.90;;;;;;12323163;28;20108;-35
2023/12/22 05:30:31;;;;;;;174.30;160.73;;;4.60;99.90;;;;;;12323354;28;20051;-35
2023/12/22 05:36:33;;;;;;;179.80;165.75;;;4.70;99.90;;;;;;12324451;28;20047;-35
2023/12/22 05:42:34;;;;;;;166.98;153.90;;;4.90;99.90;;;;;;12308654;28;20087;-35
2023/12/22 05:48:37;;;;;;;177.60;163.63;;;4.80;99.90;;;;;;12331265;28;20078;-35
2023/12/22 05:54:38;;;;;;;220.30;204.18;;;4.80;99.90;;;;;;12345133;28;20124;-35
2023/12/22 06:00:40;;;;;;;253.95;235.48;;;4.70;99.90;;;;;;12339415;28;20518;-35
2023/12/22 06:06:42;;;;;;;247.43;228.93;;;4.50;99.90;;;;;;12329505;28;20087;-35
2023/12/22 06:12:44;;;;;;;239.73;222.15;;;4.50;99.90;;;;;;12329843;28;20047;-35
2023/12/22 06:18:46;;;;;;;177.63;163.68;;;4.50;99.90;;;;;;12336010;28;20085;-35
2023/12/22 06:24:48;;;;;;;166.05;153.15;;;4.60;99.90;;;;;;12332523;28;20051;-35
2023/12/22 06:30:50;;;;;;;184.45;170.48;;;4.70;99.90;;;;;;12332602;28;20050;-35
2023/12/22 06:36:53;;;;;;;168.55;154.88;;;4.70;99.90;;;;;;12333139;28;20078;-35
2023/12/22 06:42:55;;;;;;;167.90;154.25;;;4.70;99.90;;;;;;12334656;28;20082;-35
2023/12/22 06:48:57;;;;;;;147.32;135.32;;;4.70;99.90;;;;;;12333147;28;20127;-35
2023/12/22 06:54:59;;;;;;;143.77;132.02;;;4.80;99.90;;;;;;12359880;28;20050;-35
2023/12/22 07:01:01;;;;;;;162.07;149.20;;;5.00;99.90;;;;;;12337155;28;20043;-34
2023/12/22 07:07:03;;;;;;;141.75;129.93;;;5.00;99.90;;;;;;12340438;28;20043;-34
2023/12/22 07:13:06;;;;;;;132.15;121.50;;;5.10;99.90;;;;;;12328674;28;20054;-35
2023/12/22 07:19:08;;;;;;;138.35;127.25;;;5.20;99.90;;;;;;12329728;28;20055;-35
2023/12/22 07:25:10;;;;;;;134.02;123.10;;;5.20;99.90;;;;;;12331014;28;20055;-35
2023/12/22 07:31:14;;;;;;;135.77;124.78;;;5.30;99.90;;;;;;12319692;28;20141;-35
2023/12/22 07:37:16;;;;;;;131.27;120.28;;;5.40;99.90;;;;;;12330078;28;20185;-35
2023/12/22 07:43:18;;;;;;;137.43;126.07;;;5.50;99.90;;;;;;12335393;28;20130;-35
2023/12/22 07:49:20;;;;;;;140.48;129.07;;;5.50;99.90;;;;;;12329294;28;20138;-35
2023/12/22 07:55:22;;;;;;;128.43;118.03;;;5.50;99.90;;;;;;12327246;28;20059;-35
2023/12/22 08:01:24;;;;;;;144.95;132.68;;;5.60;99.90;;;;;;12329813;28;20062;-35
2023/12/22 08:07:26;;;;;;;141.15;129.35;;;5.60;99.90;;;;;;12329107;28;20039;-34
2023/12/22 08:13:28;;;;;;;148.60;136.52;;;5.60;99.90;;;;;;12331233;28;20486;-35
2023/12/22 08:19:30;;;;;;;162.32;149.52;;;5.60;99.90;;;;;;12325102;28;20069;-35
2023/12/22 08:25:33;;;;;;;148.65;137.05;;;5.60;99.90;;;;;;12332822;28;20395;-35
2023/12/22 08:31:35;;;;;;;150.65;138.48;;;5.70;99.90;;;;;;12317254;28;20160;-36
2023/12/22 08:37:37;;;;;;;146.10;134.80;;;5.60;99.90;;;;;;12324433;28;20090;-35
2023/12/22 08:43:40;;;;;;;146.10;134.23;;;5.70;99.90;;;;;;12326062;28;20084;-36
2023/12/22 08:49:42;;;;;;;148.88;137.38;;;5.70;99.90;;;;;;12333252;28;20053;-35
2023/12/22 08:55:44;;;;;;;151.23;138.98;;;5.80;99.90;;;;;;12334260;28;20560;-35
2023/12/22 09:01:46;;;;;;;155.02;142.93;;;5.80;99.90;;;;;;12344536;28;20042;-35
2023/12/22 09:07:48;;;;;;;165.50;152.02;;;5.90;99.90;;;;;;12325715;28;20043;-35
2023/12/22 09:13:50;;;;;;;172.85;159.18;;;5.80;99.90;;;;;;12332739;28;20074;-35
2023/12/22 09:19:52;;;;;;;187.48;173.05;;;5.90;99.90;;;;;;12321670;28;20422;-34
2023/12/22 09:25:54;;;;;;;183.07;168.95;;;5.90;99.90;;;;;;12330335;28;20050;-34
2023/12/22 09:31:56;;;;;;;215.35;198.23;;;6.00;99.90;;;;;;12322874;28;20054;-35
2023/12/22 09:37:58;;;;;;;216.25;199.95;;;6.00;99.90;;;;;;12324500;28;20593;-35
2023/12/22 09:44:03;;;;;;;228.30;210.85;;;6.10;99.90;;;;;;12324090;28;20407;-35
2023/12/22 09:50:07;;;;;;;247.85;229.35;;;6.10;99.90;;;;;;12346503;28;20490;-35
2023/12/22 09:56:10;;;;;;;223.30;206.73;;;6.10;99.90;;;;;;12327535;28;20054;-35
2023/12/22 10:02:12;;;;;;;228.00;211.07;;;6.20;99.90;;;;;;12331859;28;20050;-35
2023/12/22 10:08:14;;;;;;;245.60;227.30;;;6.20;99.90;;;;;;12325531;28;20095;-35
2023/12/22 10:14:22;;;;;;;257.83;239.25;;;6.20;99.90;;;;;;12340580;28;20054;-35
2023/12/22 10:20:23;;;;;;;253.25;234.77;;;6.30;99.90;;;;;;12328378;28;20089;-35
2023/12/22 10:26:25;;;;;;;246.65;228.65;;;6.30;99.90;;;;;;12329070;28;20046;-35
2023/12/22 10:32:27;;;;;;;243.75;224.93;;;6.40;99.90;;;;;;12319183;28;20058;-35
2023/12/22 10:38:34;;;;;;;243.30;225.77;;;6.30;99.90;;;;;;12320303;28;20058;-35
2023/12/22 10:44:40;;;;;;;267.92;248.65;;;6.40;99.90;;;;;;12321678;28;20079;-35
2023/12/22 10:50:43;;;;;;;273.02;253.48;;;6.30;99.90;;;;;;12323090;28;20061;-35
2023/12/22 10:56:45;;;;;;;260.83;241.80;;;6.40;99.90;;;;;;12333296;28;20121;-35
2023/12/22 11:02:50;;;;;;;266.50;247.48;;;6.50;99.90;;;;;;12326998;28;20050;-35
2023/12/22 11:08:56;;;;;;;258.15;239.70;;;6.50;99.90;;;;;;12321618;28;20039;-35
2023/12/22 11:14:59;;;;;;;266.88;247.32;;;6.50;99.90;;;;;;12332609;28;20055;-35
2023/12/22 11:21:03;;;;;;;264.50;245.68;;;6.50;99.90;;;;;;12324729;28;20133;-35
2023/12/22 11:27:06;;;;;;;262.50;243.80;;;6.50;99.90;;;;;;12329669;28;20411;-35
2023/12/22 11:33:10;;;;;;;272.33;252.27;;;6.50;99.90;;;;;;12324105;28;20172;-35
2023/12/22 11:39:12;;;;;;;287.33;266.87;;;6.50;99.90;;;;;;12327342;28;20062;-36
2023/12/22 11:45:16;;;;;;;272.48;253.23;;;6.40;99.90;;;;;;12331319;28;20054;-35
2023/12/22 11:51:19;;;;;;;263.38;244.57;;;6.50;99.90;;;;;;12320191;28;20042;-35
2023/12/22 11:57:37;;;;;;;255.70;237.80;;;6.50;99.90;;;;;;12335773;28;20159;-36
2023/12/22 12:03:56;;;;;;;261.15;242.75;;;6.50;99.90;;;;;;12333043;28;20419;-35
2023/12/22 12:09:59;;;;;;;294.65;274.58;;;6.50;99.90;;;;;;12322542;28;20047;-35
2023/12/22 12:16:01;;;;;;;312.85;291.15;;;6.60;99.90;;;;;;12325887;28;20063;-36
2023/12/22 12:22:04;;;;;;;313.27;291.85;;;6.50;99.90;;;;;;12329251;28;20202;-35
2023/12/22 12:28:08;;;;;;;332.95;310.15;;;6.50;99.90;;;;;;12334699;28;20043;-35
2023/12/22 12:34:11;;;;;;;340.50;317.20;;;6.50;99.90;;;;;;12324070;28;20149;-35
2023/12/22 12:40:17;;;;;;;362.75;337.98;;;6.50;99.90;;;;;;12324667;28;20054;-35
2023/12/22 12:46:19;;;;;;;347.63;324.40;;;6.40;99.90;;;;;;12334492;28;20057;-35
2023/12/22 12:52:21;;;;;;;370.73;345.77;;;6.40;99.90;;;;;;12325119;28;20084;-35
2023/12/22 12:58:30;;;;;;;366.63;342.13;;;6.40;99.90;;;;;;12327743;28;20047;-36
2023/12/22 13:04:38;;;;;;;357.10;333.13;;;6.40;99.90;;;;;;12318961;28;20051;-35
2023/12/22 13:10:41;;;;;;;350.20;326.52;;;6.30;99.90;;;;;;12327556;28;20419;-35
2023/12/22 13:16:43;;;;;;;336.02;313.83;;;6.30;99.90;;;;;;12329095;28;20069;-36
2023/12/22 13:22:45;;;;;;;352.50;328.75;;;6.40;99.90;;;;;;12336742;28;20126;-35
2023/12/22 13:28:48;;;;;;;335.15;311.85;;;6.40;99.90;;;;;;12354562;28;20050;-36
2023/12/22 13:34:52;;;;;;;362.63;338.08;;;6.30;99.90;;;;;;12312668;28;20093;-36
2023/12/22 13:40:54;;;;;;;345.00;321.80;;;6.40;99.90;;;;;;12321607;28;20099;-35
2023/12/22 13:46:56;;;;;;;345.67;322.30;;;6.40;99.90;;;;;;12328707;28;20046;-35
2023/12/22 13:53:08;;;;;;;340.17;317.10;;;6.40;99.90;;;;;;12320789;28;20426;-35
2023/12/22 13:59:10;;;;;;;315.15;294.10;;;6.50;99.90;;;;;;12319729;28;20055;-35
2023/12/22 14:05:13;;;;;;;321.90;300.25;;;6.50;99.90;;;;;;12327021;28;20133;-35
2023/12/22 14:11:15;;;;;;;333.52;311.05;;;6.60;99.90;;;;;;12332237;28;20502;-35
2023/12/22 14:17:19;;;;;;;341.77;318.52;;;6.50;99.90;;;;;;12335017;28;20515;-34
2023/12/22 14:23:21;;;;;;;327.95;305.73;;;6.40;99.90;;;;;;12338954;28;20051;-35
2023/12/22 14:29:23;;;;;;;417.98;389.95;;;6.40;99.90;;;;;;12331406;28;20157;-35
2023/12/22 14:35:25;;;;;;;434.30;405.08;;;6.30;99.90;;;;;;12330462;28;20086;-35
2023/12/22 14:41:28;;;;;;;451.48;420.50;;;6.20;99.90;;;;;;12320854;28;20479;-35
2023/12/22 14:47:31;;;;;;;425.75;396.85;;;6.20;99.90;;;;;;12340928;28;20055;-36
2023/12/22 14:53:33;;;;;;;432.10;402.63;;;6.10;99.90;;;;;;12350521;28;20184;-36
2023/12/22 14:59:36;;;;;;;422.88;393.58;;;6.20;99.90;;;;;;12330657;28;20127;-35
2023/12/22 15:05:38;;;;;;;460.33;429.13;;;6.20;99.90;;;;;;12327734;28;20064;-36
2023/12/22 15:11:44;;;;;;;529.65;494.10;;;6.10;99.90;;;;;;12330022;28;20223;-35
2023/12/22 15:17:47;;;;;;;565.78;528.00;;;6.10;99.90;;;;;;12324476;28;20791;-35
2023/12/22 15:23:50;;;;;;;572.25;533.75;;;6.10;99.90;;;;;;12331786;28;20070;-35
2023/12/22 15:29:53;;;;;;;552.47;515.55;;;6.10;99.90;;;;;;12328369;28;21430;-36
2023/12/22 15:35:55;;;;;;;563.80;525.95;;;6.10;99.90;;;;;;12331845;28;20392;-35
2023/12/22 15:41:57;;;;;;;529.80;494.52;;;6.10;99.90;;;;;;12329461;28;20126;-35
2023/12/22 15:48:01;;;;;;;531.25;496.35;;;6.20;99.90;;;;;;12325699;28;20088;-35
2023/12/22 15:54:03;;;;;;;517.47;483.17;;;6.30;99.90;;;;;;12332611;28;20055;-36
2023/12/22 16:00:05;;;;;;;521.75;487.60;;;6.40;99.90;;;;;;12333641;28;20403;-35
2023/12/22 16:06:08;;;;;;;471.70;440.25;;;6.50;99.90;;;;;;12334499;28;20089;-34
2023/12/22 16:12:09;;;;;;;426.92;398.17;;;6.50;99.90;;;;;;12334415;28;20414;-35
2023/12/22 16:18:11;;;;;;;408.13;380.48;;;6.50;99.90;;;;;;12329556;28;20450;-34
2023/12/22 16:24:13;;;;;;;407.75;380.33;;;6.50;99.90;;;;;;12329474;28;20080;-35
2023/12/22 16:30:15;;;;;;;400.95;374.00;;;6.50;99.90;;;;;;12332203;28;20410;-35
2023/12/22 16:36:17;;;;;;;381.42;356.08;;;6.50;99.90;;;;;;12359233;28;20055;-35
2023/12/22 16:42:20;;;;;;;376.95;350.85;;;6.60;99.90;;;;;;12319251;28;20051;-35
2023/12/22 16:48:23;;;;;;;356.52;332.33;;;6.60;99.90;;;;;;12323165;28;20081;-35
2023/12/22 16:54:24;;;;;;;333.38;310.90;;;6.60;99.90;;;;;;12327902;28;20047;-36
2023/12/22 17:00:27;;;;;;;350.90;326.83;;;6.60;99.90;;;;;;12324446;28;20525;-35
2023/12/22 17:06:28;;;;;;;279.45;260.55;;;6.60;99.90;;;;;;12321946;28;20088;-35
2023/12/22 17:12:31;;;;;;;240.63;223.80;;;6.70;99.90;;;;;;12325991;28;20051;-35
2023/12/22 17:18:33;;;;;;;250.38;232.52;;;6.80;99.90;;;;;;12338751;28;20094;-35
2023/12/22 17:24:35;;;;;;;240.50;223.65;;;6.70;99.90;;;;;;12331563;28;20051;-35
2023/12/22 17:30:37;;;;;;;202.48;188.10;;;6.60;99.90;;;;;;12343227;28;20901;-35
2023/12/22 17:36:39;;;;;;;195.57;181.50;;;6.80;99.90;;;;;;12323470;28;20047;-35
2023/12/22 17:42:41;;;;;;;192.18;178.38;;;6.80;99.90;;;;;;12329363;28;20090;-35
2023/12/22 17:48:43;;;;;;;205.23;190.43;;;6.90;99.90;;;;;;12328397;28;20054;-36
2023/12/22 17:54:45;;;;;;;196.75;182.68;;;7.00;99.90;;;;;;12332825;28;20054;-35
2023/12/22 18:00:47;;;;;;;157.25;146.45;;;7.00;50.60;;;;;;12337599;28;20058;-35
2023/12/22 18:06:49;;;;;;;166.55;154.82;;;7.10;1.00;;;;;;12336783;28;20042;-35
2023/12/22 18:12:51;;;;;;;147.25;137.05;;;7.00;1.00;;;;;;12324600;28;20089;-35
2023/12/22 18:18:53;;;;;;;145.43;135.35;;;7.00;1.00;;;;;;12334149;28;20055;-35
2023/12/22 18:24:55;;;;;;;145.90;135.40;;;7.00;1.40;;;;;;12339475;28;20134;-35
2023/12/22 18:30:57;;;;;;;160.95;149.35;;;7.00;1.00;;;;;;12330422;28;20130;-36
2023/12/22 18:36:58;;;;;;;136.73;127.22;;;7.00;1.00;;;;;;12332291;28;20051;-35
2023/12/22 18:43:00;;;;;;;131.95;122.50;;;7.00;1.00;;;;;;12332701;28;20054;-36
2023/12/22 18:49:04;;;;;;;135.38;125.78;;;7.00;1.00;;;;;;12346235;28;20456;-36
2023/12/22 18:55:06;;;;;;;137.07;127.57;;;7.10;33.10;;;;;;12334539;28;20073;-36
2023/12/22 19:01:09;;;;;;;136.93;127.35;;;7.10;1.00;;;;;;12333763;28;20141;-36
2023/12/22 19:07:28;;;;;;;148.40;137.77;;;7.00;1.00;;;;;;12331275;28;20403;-36
2023/12/22 19:13:30;;;;;;;154.27;142.77;;;7.00;1.00;;;;;;12338072;28;20099;-36
2023/12/22 19:19:32;;;;;;;144.48;133.95;;;7.00;48.80;;;;;;12337717;28;20089;-36
2023/12/22 19:25:34;;;;;;;150.40;139.20;;;7.00;1.00;;;;;;12326434;28;20051;-35
2023/12/22 19:31:38;;;;;;;206.70;190.50;;;7.10;79.30;;;;;;12329926;28;20137;-36
2023/12/22 19:37:40;;;;;;;238.23;219.65;;;6.90;99.90;;;;;;12329013;28;20055;-36
2023/12/22 19:43:42;;;;;;;203.50;187.10;;;6.50;99.90;;;;;;12329741;28;20067;-36
2023/12/22 19:49:45;;;;;;;139.18;128.57;;;6.40;99.90;;;;;;12331162;28;20043;-35
2023/12/22 19:55:48;;;;;;;157.95;145.98;;;6.50;99.90;;;;;;12331306;28;20050;-36
2023/12/22 20:01:50;;;;;;;137.50;127.68;;;6.60;99.90;;;;;;12333847;28;20471;-36
2023/12/22 20:07:51;;;;;;;162.95;150.80;;;6.60;15.00;;;;;;12327606;28;20050;-35
2023/12/22 20:13:54;;;;;;;155.68;143.98;;;6.50;1.00;;;;;;12331495;28;20046;-35
2023/12/22 20:19:58;;;;;;;132.17;122.93;;;6.50;1.00;;;;;;12321241;28;20521;-36
2023/12/22 20:26:00;;;;;;;127.43;118.93;;;6.50;1.00;;;;;;12329323;28;20042;-36
2023/12/22 20:32:03;;;;;;;144.70;134.30;;;6.50;6.80;;;;;;12322852;28;20176;-36
2023/12/22 20:38:05;;;;;;;135.38;125.93;;;6.50;1.00;;;;;;12328044;28;20137;-36
2023/12/22 20:44:07;;;;;;;133.85;124.38;;;6.40;1.00;;;;;;12328316;28;20066;-36
2023/12/22 20:50:09;;;;;;;157.25;145.95;;;6.40;1.00;;;;;;12332021;28;20055;-36
2023/12/22 20:56:23;;;;;;;146.35;135.30;;;6.30;1.00;;;;;;12325659;28;20058;-36
2023/12/22 21:02:25;;;;;;;160.10;147.90;;;6.30;92.30;;;;;;12325848;28;20058;-36
2023/12/22 21:08:27;;;;;;;163.85;151.10;;;6.30;99.90;;;;;;12320913;28;20058;-36
2023/12/22 21:14:29;;;;;;;175.90;161.70;;;6.20;99.90;;;;;;12328393;28;20055;-36
2023/12/22 21:20:31;;;;;;;188.25;173.43;;;6.20;99.90;;;;;;12330078;28;20137;-36
2023/12/22 21:26:33;;;;;;;168.85;155.65;;;6.10;99.90;;;;;;12328123;28;20050;-36
2023/12/22 21:32:37;;;;;;;158.60;146.40;;;6.10;99.90;;;;;;12320146;28;20051;-36
2023/12/22 21:38:39;;;;;;;181.73;167.30;;;6.10;99.90;;;;;;12326299;28;20051;-35
2023/12/22 21:44:41;;;;;;;194.75;179.77;;;6.00;99.90;;;;;;12333045;28;20471;-36
2023/12/22 21:50:44;;;;;;;182.65;168.50;;;5.90;99.90;;;;;;12325038;28;20142;-36
2023/12/22 21:56:47;;;;;;;173.30;159.52;;;5.90;99.90;;;;;;12336145;28;20168;-34
2023/12/22 22:02:49;;;;;;;172.30;158.65;;;5.90;99.90;;;;;;12323098;28;20042;-36
2023/12/22 22:08:51;;;;;;;251.27;231.60;;;5.90;99.90;;;;;;12326264;28;20051;-36
2023/12/22 22:14:54;;;;;;;345.42;319.30;;;5.80;99.90;;;;;;12328087;28;20058;-35
2023/12/22 22:20:56;;;;;;;499.58;459.88;;;5.60;99.90;;;;;;12328001;28;20390;-36
2023/12/22 22:26:59;;;;;;;579.55;534.00;;;4.90;99.90;;;;;;12327904;28;20051;-35
2023/12/22 22:33:02;;;;;;;608.13;560.47;;;4.60;99.90;;;;;;12324665;28;20051;-35
2023/12/22 22:39:05;;;;;;;648.20;597.57;;;4.60;99.90;;;;;;12324837;28;20050;-35
2023/12/22 22:45:08;;;;;;;647.20;597.65;;;4.50;99.90;;;;;;12331253;28;20050;-35
2023/12/22 22:51:18;;;;;;;657.83;607.22;;;4.40;99.90;;;;;;12327000;28;20050;-35
2023/12/22 22:57:21;;;;;;;630.22;582.78;;;4.40;99.90;;;;;;12342461;28;20050;-40
2023/12/22 23:03:23;;;;;;;611.25;565.60;;;4.40;99.90;;;;;;12336786;28;20146;-36
2023/12/22 23:09:25;;;;;;;522.50;485.13;;;4.40;99.90;;;;;;12327956;28;20047;-36
2023/12/22 23:15:27;;;;;;;404.92;376.40;;;4.60;99.90;;;;;;12333595;28;20474;-36
2023/12/22 23:21:29;;;;;;;369.30;343.70;;;4.70;99.90;;;;;;12330154;28;20050;-35
2023/12/22 23:27:31;;;;;;;350.85;325.58;;;4.80;99.90;;;;;;12335483;28;20043;-36
2023/12/22 23:33:34;;;;;;;301.88;280.80;;;4.90;99.90;;;;;;12331684;28;20065;-35
2023/12/22 23:39:37;;;;;;;309.00;287.30;;;5.00;99.90;;;;;;12325862;28;20047;-35
2023/12/22 23:45:38;;;;;;;298.30;277.58;;;4.90;99.90;;;;;;12319496;28;20055;-35
2023/12/22 23:51:40;;;;;;;226.27;210.23;;;4.90;99.90;;;;;;12329393;28;20075;-36
2023/12/22 23:57:42;;;;;;;214.98;199.82;;;4.90;99.90;;;;;;12349114;28;20083;-36
